sensor_id;sensor_type;location;lat;lon;timestamp;P1;durP1;ratioP1;P2;durP2;ratioP2
16286;SDS011;8251;53.568;10.018;2023-12-28T00:01:27;3.80;;;1.23;;
16286;SDS011;8251;53.568;10.018;2023-12-28T00:03:54;3.87;;;1.50;;
16286;SDS011;8251;53.568;10.018;2023-12-28T00:06:21;4.00;;;1.43;;
16286;SDS011;8251;53.568;10.018;2023-12-28T00:08:47;4.27;;;1.50;;
16286;SDS011;8251;53.568;10.018;2023-12-28T00:11:16;1.57;;;1.03;;
16286;SDS011;8251;53.568;10.018;2023-12-28T00:13:43;1.67;;;1.03;;
16286;SDS011;8251;53.568;10.018;2023-12-28T00:16:10;2.70;;;1.33;;
16286;SDS011;8251;53.568;10.018;2023-12-28T00:18:37;3.33;;;1.10;;
16286;SDS011;8251;53.568;10.018;2023-12-28T00:21:04;5.93;;;1.50;;
16286;SDS011;8251;53.568;10.018;2023-12-28T00:23:36;1.10;;;0.97;;
16286;SDS011;8251;53.568;10.018;2023-12-28T00:26:03;2.87;;;1.20;;
16286;SDS011;8251;53.568;10.018;2023-12-28T00:28:31;2.20;;;1.07;;
16286;SDS011;8251;53.568;10.018;2023-12-28T00:30:58;5.10;;;1.40;;
16286;SDS011;8251;53.568;10.018;2023-12-28T00:33:25;2.23;;;1.00;;
16286;SDS011;8251;53.568;10.018;2023-12-28T00:35:52;1.40;;;1.13;;
16286;SDS011;8251;53.568;10.018;2023-12-28T00:38:18;7.00;;;1.60;;
16286;SDS011;8251;53.568;10.018;2023-12-28T00:40:45;1.37;;;1.10;;
16286;SDS011;8251;53.568;10.018;2023-12-28T00:43:12;3.83;;;1.47;;
16286;SDS011;8251;53.568;10.018;2023-12-28T00:45:40;2.37;;;1.50;;
16286;SDS011;8251;53.568;10.018;2023-12-28T00:48:08;1.50;;;1.10;;
16286;SDS011;8251;53.568;10.018;2023-12-28T00:50:35;2.53;;;1.33;;
16286;SDS011;8251;53.568;10.018;2023-12-28T00:53:02;1.87;;;1.33;;
16286;SDS011;8251;53.568;10.018;2023-12-28T00:55:29;6.07;;;1.50;;
16286;SDS011;8251;53.568;10.018;2023-12-28T00:57:56;1.60;;;1.13;;
16286;SDS011;8251;53.568;10.018;2023-12-28T01:00:23;1.77;;;1.40;;
16286;SDS011;8251;53.568;10.018;2023-12-28T01:02:51;3.53;;;1.20;;
16286;SDS011;8251;53.568;10.018;2023-12-28T01:05:18;3.13;;;1.63;;
16286;SDS011;8251;53.568;10.018;2023-12-28T01:07:46;2.40;;;1.33;;
16286;SDS011;8251;53.568;10.018;2023-12-28T01:10:13;1.33;;;1.10;;
16286;SDS011;8251;53.568;10.018;2023-12-28T01:12:40;3.40;;;1.53;;
16286;SDS011;8251;53.568;10.018;2023-12-28T01:15:07;1.50;;;1.10;;
16286;SDS011;8251;53.568;10.018;2023-12-28T01:17:34;5.70;;;1.40;;
16286;SDS011;8251;53.568;10.018;2023-12-28T01:20:02;1.30;;;1.20;;
16286;SDS011;8251;53.568;10.018;2023-12-28T01:22:31;3.87;;;1.27;;
16286;SDS011;8251;53.568;10.018;2023-12-28T01:24:58;4.03;;;1.70;;
16286;SDS011;8251;53.568;10.018;2023-12-28T01:30:15;3.30;;;1.83;;
16286;SDS011;8251;53.568;10.018;2023-12-28T01:32:41;2.73;;;1.70;;
16286;SDS011;8251;53.568;10.018;2023-12-28T01:35:09;3.77;;;1.60;;
16286;SDS011;8251;53.568;10.018;2023-12-28T01:37:36;3.67;;;1.63;;
16286;SDS011;8251;53.568;10.018;2023-12-28T01:40:04;2.20;;;1.47;;
16286;SDS011;8251;53.568;10.018;2023-12-28T01:42:32;4.50;;;1.40;;
16286;SDS011;8251;53.568;10.018;2023-12-28T01:45:00;1.33;;;1.20;;
16286;SDS011;8251;53.568;10.018;2023-12-28T01:47:27;4.73;;;1.50;;
16286;SDS011;8251;53.568;10.018;2023-12-28T01:49:55;2.23;;;1.80;;
16286;SDS011;8251;53.568;10.018;2023-12-28T01:52:24;3.90;;;1.27;;
16286;SDS011;8251;53.568;10.018;2023-12-28T01:54:51;3.77;;;1.70;;
16286;SDS011;8251;53.568;10.018;2023-12-28T01:57:18;1.83;;;1.50;;
16286;SDS011;8251;53.568;10.018;2023-12-28T01:59:45;3.87;;;1.63;;
16286;SDS011;8251;53.568;10.018;2023-12-28T02:02:12;3.37;;;1.20;;
16286;SDS011;8251;53.568;10.018;2023-12-28T02:04:40;4.60;;;1.50;;
16286;SDS011;8251;53.568;10.018;2023-12-28T02:07:07;2.13;;;1.57;;
16286;SDS011;8251;53.568;10.018;2023-12-28T02:09:44;2.87;;;1.50;;
16286;SDS011;8251;53.568;10.018;2023-12-28T02:12:11;2.53;;;1.80;;
16286;SDS011;8251;53.568;10.018;2023-12-28T02:14:38;6.00;;;1.77;;
16286;SDS011;8251;53.568;10.018;2023-12-28T02:17:06;3.13;;;1.67;;
16286;SDS011;8251;53.568;10.018;2023-12-28T02:19:40;3.70;;;1.87;;
16286;SDS011;8251;53.568;10.018;2023-12-28T02:22:10;2.47;;;1.63;;
16286;SDS011;8251;53.568;10.018;2023-12-28T02:24:59;5.13;;;1.50;;
16286;SDS011;8251;53.568;10.018;2023-12-28T02:27:31;3.20;;;2.90;;
16286;SDS011;8251;53.568;10.018;2023-12-28T02:29:59;2.20;;;1.60;;
16286;SDS011;8251;53.568;10.018;2023-12-28T02:32:28;2.70;;;2.00;;
16286;SDS011;8251;53.568;10.018;2023-12-28T02:35:06;2.33;;;1.90;;
16286;SDS011;8251;53.568;10.018;2023-12-28T02:37:41;3.63;;;1.70;;
16286;SDS011;8251;53.568;10.018;2023-12-28T02:40:12;5.13;;;1.80;;
16286;SDS011;8251;53.568;10.018;2023-12-28T02:42:41;1.83;;;1.53;;
16286;SDS011;8251;53.568;10.018;2023-12-28T02:45:08;3.57;;;1.60;;
16286;SDS011;8251;53.568;10.018;2023-12-28T02:47:35;1.57;;;1.40;;
16286;SDS011;8251;53.568;10.018;2023-12-28T02:50:02;2.83;;;1.73;;
16286;SDS011;8251;53.568;10.018;2023-12-28T02:52:30;3.43;;;2.30;;
16286;SDS011;8251;53.568;10.018;2023-12-28T02:54:57;4.63;;;1.80;;
16286;SDS011;8251;53.568;10.018;2023-12-28T02:57:26;3.07;;;1.63;;
16286;SDS011;8251;53.568;10.018;2023-12-28T02:59:53;2.80;;;2.57;;
16286;SDS011;8251;53.568;10.018;2023-12-28T03:02:21;2.43;;;1.80;;
16286;SDS011;8251;53.568;10.018;2023-12-28T03:04:48;5.47;;;2.13;;
16286;SDS011;8251;53.568;10.018;2023-12-28T03:07:15;4.93;;;1.97;;
16286;SDS011;8251;53.568;10.018;2023-12-28T03:09:42;4.90;;;2.40;;
16286;SDS011;8251;53.568;10.018;2023-12-28T03:12:09;3.70;;;1.93;;
16286;SDS011;8251;53.568;10.018;2023-12-28T03:14:37;3.10;;;1.90;;
16286;SDS011;8251;53.568;10.018;2023-12-28T03:17:04;3.60;;;1.70;;
16286;SDS011;8251;53.568;10.018;2023-12-28T03:19:30;6.27;;;2.33;;
16286;SDS011;8251;53.568;10.018;2023-12-28T03:21:57;2.87;;;2.10;;
16286;SDS011;8251;53.568;10.018;2023-12-28T03:24:24;6.07;;;1.80;;
16286;SDS011;8251;53.568;10.018;2023-12-28T03:26:51;2.97;;;1.83;;
16286;SDS011;8251;53.568;10.018;2023-12-28T03:29:18;1.67;;;1.57;;
16286;SDS011;8251;53.568;10.018;2023-12-28T03:31:47;4.63;;;2.27;;
16286;SDS011;8251;53.568;10.018;2023-12-28T03:34:14;4.30;;;2.03;;
16286;SDS011;8251;53.568;10.018;2023-12-28T03:36:42;2.97;;;1.93;;
16286;SDS011;8251;53.568;10.018;2023-12-28T03:39:16;4.23;;;2.20;;
16286;SDS011;8251;53.568;10.018;2023-12-28T03:41:43;4.53;;;2.07;;
16286;SDS011;8251;53.568;10.018;2023-12-28T03:44:10;3.90;;;2.10;;
16286;SDS011;8251;53.568;10.018;2023-12-28T03:46:37;4.13;;;2.13;;
16286;SDS011;8251;53.568;10.018;2023-12-28T03:49:06;5.13;;;1.80;;
16286;SDS011;8251;53.568;10.018;2023-12-28T03:51:33;4.40;;;2.10;;
16286;SDS011;8251;53.568;10.018;2023-12-28T03:53:59;2.50;;;1.90;;
16286;SDS011;8251;53.568;10.018;2023-12-28T03:56:28;6.30;;;2.67;;
16286;SDS011;8251;53.568;10.018;2023-12-28T03:58:58;6.10;;;2.10;;
16286;SDS011;8251;53.568;10.018;2023-12-28T04:01:25;3.17;;;2.10;;
16286;SDS011;8251;53.568;10.018;2023-12-28T04:03:52;4.27;;;1.90;;
16286;SDS011;8251;53.568;10.018;2023-12-28T04:06:20;2.63;;;1.90;;
16286;SDS011;8251;53.568;10.018;2023-12-28T04:08:47;1.97;;;1.40;;
16286;SDS011;8251;53.568;10.018;2023-12-28T04:11:14;4.57;;;1.57;;
16286;SDS011;8251;53.568;10.018;2023-12-28T04:13:41;2.17;;;1.70;;
16286;SDS011;8251;53.568;10.018;2023-12-28T04:16:08;2.53;;;1.87;;
16286;SDS011;8251;53.568;10.018;2023-12-28T04:18:39;4.97;;;2.83;;
16286;SDS011;8251;53.568;10.018;2023-12-28T04:23:57;4.73;;;2.17;;
16286;SDS011;8251;53.568;10.018;2023-12-28T04:26:24;4.67;;;2.00;;
16286;SDS011;8251;53.568;10.018;2023-12-28T04:28:50;4.60;;;2.63;;
16286;SDS011;8251;53.568;10.018;2023-12-28T04:31:17;2.77;;;1.67;;
16286;SDS011;8251;53.568;10.018;2023-12-28T04:33:44;3.90;;;1.90;;
16286;SDS011;8251;53.568;10.018;2023-12-28T04:36:11;8.43;;;2.40;;
16286;SDS011;8251;53.568;10.018;2023-12-28T04:38:39;4.77;;;2.17;;
16286;SDS011;8251;53.568;10.018;2023-12-28T04:41:06;3.90;;;2.10;;
16286;SDS011;8251;53.568;10.018;2023-12-28T04:43:35;2.93;;;1.83;;
16286;SDS011;8251;53.568;10.018;2023-12-28T04:46:03;2.77;;;2.00;;
16286;SDS011;8251;53.568;10.018;2023-12-28T04:48:30;3.97;;;2.00;;
16286;SDS011;8251;53.568;10.018;2023-12-28T04:50:56;2.97;;;2.23;;
16286;SDS011;8251;53.568;10.018;2023-12-28T04:53:23;4.53;;;1.83;;
16286;SDS011;8251;53.568;10.018;2023-12-28T04:55:51;3.03;;;2.00;;
16286;SDS011;8251;53.568;10.018;2023-12-28T04:58:18;3.47;;;2.13;;
16286;SDS011;8251;53.568;10.018;2023-12-28T05:00:45;4.87;;;2.20;;
16286;SDS011;8251;53.568;10.018;2023-12-28T05:03:12;3.80;;;2.27;;
16286;SDS011;8251;53.568;10.018;2023-12-28T05:05:39;3.97;;;1.87;;
16286;SDS011;8251;53.568;10.018;2023-12-28T05:08:13;3.07;;;2.10;;
16286;SDS011;8251;53.568;10.018;2023-12-28T05:10:39;4.90;;;2.17;;
16286;SDS011;8251;53.568;10.018;2023-12-28T05:13:08;3.87;;;1.83;;
16286;SDS011;8251;53.568;10.018;2023-12-28T05:15:35;4.67;;;1.77;;
16286;SDS011;8251;53.568;10.018;2023-12-28T05:18:02;4.17;;;1.83;;
16286;SDS011;8251;53.568;10.018;2023-12-28T05:20:29;7.47;;;2.53;;
16286;SDS011;8251;53.568;10.018;2023-12-28T05:22:56;6.00;;;2.30;;
16286;SDS011;8251;53.568;10.018;2023-12-28T05:25:23;3.00;;;2.20;;
16286;SDS011;8251;53.568;10.018;2023-12-28T05:27:50;6.10;;;3.37;;
16286;SDS011;8251;53.568;10.018;2023-12-28T05:30:18;4.13;;;1.77;;
16286;SDS011;8251;53.568;10.018;2023-12-28T05:32:45;3.47;;;1.93;;
16286;SDS011;8251;53.568;10.018;2023-12-28T05:35:12;2.60;;;1.70;;
16286;SDS011;8251;53.568;10.018;2023-12-28T05:37:39;2.53;;;1.60;;
16286;SDS011;8251;53.568;10.018;2023-12-28T05:40:06;3.83;;;2.17;;
16286;SDS011;8251;53.568;10.018;2023-12-28T05:42:34;3.70;;;2.03;;
16286;SDS011;8251;53.568;10.018;2023-12-28T05:45:02;6.50;;;2.07;;
16286;SDS011;8251;53.568;10.018;2023-12-28T05:47:31;5.27;;;1.90;;
16286;SDS011;8251;53.568;10.018;2023-12-28T05:50:04;7.10;;;2.17;;
16286;SDS011;8251;53.568;10.018;2023-12-28T05:52:31;6.80;;;2.00;;
16286;SDS011;8251;53.568;10.018;2023-12-28T05:54:58;3.60;;;1.70;;
16286;SDS011;8251;53.568;10.018;2023-12-28T05:57:25;2.50;;;1.60;;
16286;SDS011;8251;53.568;10.018;2023-12-28T05:59:55;2.90;;;1.70;;
16286;SDS011;8251;53.568;10.018;2023-12-28T06:02:21;5.80;;;2.00;;
16286;SDS011;8251;53.568;10.018;2023-12-28T06:04:50;4.60;;;2.43;;
16286;SDS011;8251;53.568;10.018;2023-12-28T06:07:16;3.77;;;1.70;;
16286;SDS011;8251;53.568;10.018;2023-12-28T06:09:44;4.47;;;1.83;;
16286;SDS011;8251;53.568;10.018;2023-12-28T06:12:11;4.73;;;1.93;;
16286;SDS011;8251;53.568;10.018;2023-12-28T06:14:38;2.63;;;1.70;;
16286;SDS011;8251;53.568;10.018;2023-12-28T06:17:05;2.83;;;1.97;;
16286;SDS011;8251;53.568;10.018;2023-12-28T06:19:31;6.60;;;2.20;;
16286;SDS011;8251;53.568;10.018;2023-12-28T06:21:59;6.40;;;2.10;;
16286;SDS011;8251;53.568;10.018;2023-12-28T06:24:26;4.60;;;2.30;;
16286;SDS011;8251;53.568;10.018;2023-12-28T06:26:55;4.43;;;1.60;;
16286;SDS011;8251;53.568;10.018;2023-12-28T06:29:22;5.73;;;1.73;;
16286;SDS011;8251;53.568;10.018;2023-12-28T06:31:49;5.50;;;2.10;;
16286;SDS011;8251;53.568;10.018;2023-12-28T06:34:16;4.10;;;1.90;;
16286;SDS011;8251;53.568;10.018;2023-12-28T06:36:43;4.03;;;1.90;;
16286;SDS011;8251;53.568;10.018;2023-12-28T06:39:11;4.23;;;1.77;;
16286;SDS011;8251;53.568;10.018;2023-12-28T06:41:40;2.43;;;1.50;;
16286;SDS011;8251;53.568;10.018;2023-12-28T06:44:06;7.30;;;2.07;;
16286;SDS011;8251;53.568;10.018;2023-12-28T06:46:33;3.70;;;1.70;;
16286;SDS011;8251;53.568;10.018;2023-12-28T06:49:00;4.70;;;1.40;;
16286;SDS011;8251;53.568;10.018;2023-12-28T06:51:27;4.00;;;1.80;;
16286;SDS011;8251;53.568;10.018;2023-12-28T06:53:54;3.90;;;1.73;;
16286;SDS011;8251;53.568;10.018;2023-12-28T06:56:22;5.93;;;2.53;;
16286;SDS011;8251;53.568;10.018;2023-12-28T06:58:49;5.70;;;2.33;;
16286;SDS011;8251;53.568;10.018;2023-12-28T07:01:16;6.90;;;1.70;;
16286;SDS011;8251;53.568;10.018;2023-12-28T07:03:43;5.33;;;1.90;;
16286;SDS011;8251;53.568;10.018;2023-12-28T07:06:13;1.97;;;1.20;;
16286;SDS011;8251;53.568;10.018;2023-12-28T07:08:40;4.43;;;2.00;;
16286;SDS011;8251;53.568;10.018;2023-12-28T07:11:09;2.33;;;1.70;;
16286;SDS011;8251;53.568;10.018;2023-12-28T07:13:37;4.70;;;1.33;;
16286;SDS011;8251;53.568;10.018;2023-12-28T07:16:04;5.13;;;1.83;;
16286;SDS011;8251;53.568;10.018;2023-12-28T07:18:32;2.10;;;1.73;;
16286;SDS011;8251;53.568;10.018;2023-12-28T07:20:59;4.37;;;1.77;;
16286;SDS011;8251;53.568;10.018;2023-12-28T07:23:26;4.93;;;1.60;;
16286;SDS011;8251;53.568;10.018;2023-12-28T07:25:53;4.93;;;1.63;;
16286;SDS011;8251;53.568;10.018;2023-12-28T07:28:20;3.73;;;1.50;;
16286;SDS011;8251;53.568;10.018;2023-12-28T07:30:48;6.53;;;1.73;;
16286;SDS011;8251;53.568;10.018;2023-12-28T07:33:15;1.80;;;1.30;;
16286;SDS011;8251;53.568;10.018;2023-12-28T07:35:42;4.43;;;1.60;;
16286;SDS011;8251;53.568;10.018;2023-12-28T07:38:08;3.43;;;1.73;;
16286;SDS011;8251;53.568;10.018;2023-12-28T07:40:34;7.20;;;1.70;;
16286;SDS011;8251;53.568;10.018;2023-12-28T07:43:01;3.73;;;1.37;;
16286;SDS011;8251;53.568;10.018;2023-12-28T07:45:28;6.00;;;1.97;;
16286;SDS011;8251;53.568;10.018;2023-12-28T07:47:56;5.07;;;1.83;;
16286;SDS011;8251;53.568;10.018;2023-12-28T07:50:22;3.30;;;1.30;;
16286;SDS011;8251;53.568;10.018;2023-12-28T07:52:49;1.90;;;1.30;;
16286;SDS011;8251;53.568;10.018;2023-12-28T07:55:19;4.93;;;1.57;;
16286;SDS011;8251;53.568;10.018;2023-12-28T07:57:46;4.63;;;1.80;;
16286;SDS011;8251;53.568;10.018;2023-12-28T08:00:13;3.70;;;1.40;;
16286;SDS011;8251;53.568;10.018;2023-12-28T08:02:40;6.67;;;1.97;;
16286;SDS011;8251;53.568;10.018;2023-12-28T08:05:08;5.33;;;2.10;;
16286;SDS011;8251;53.568;10.018;2023-12-28T08:07:35;5.63;;;1.30;;
16286;SDS011;8251;53.568;10.018;2023-12-28T08:10:02;5.10;;;1.30;;
16286;SDS011;8251;53.568;10.018;2023-12-28T08:12:32;3.57;;;1.63;;
16286;SDS011;8251;53.568;10.018;2023-12-28T08:14:59;3.03;;;1.40;;
16286;SDS011;8251;53.568;10.018;2023-12-28T08:17:26;8.53;;;1.60;;
16286;SDS011;8251;53.568;10.018;2023-12-28T08:19:53;2.43;;;1.30;;
16286;SDS011;8251;53.568;10.018;2023-12-28T08:22:21;9.53;;;2.20;;
16286;SDS011;8251;53.568;10.018;2023-12-28T08:24:48;7.10;;;2.13;;
16286;SDS011;8251;53.568;10.018;2023-12-28T08:27:15;9.37;;;1.43;;
16286;SDS011;8251;53.568;10.018;2023-12-28T08:29:42;3.43;;;1.30;;
16286;SDS011;8251;53.568;10.018;2023-12-28T08:32:10;9.80;;;1.60;;
16286;SDS011;8251;53.568;10.018;2023-12-28T08:34:37;8.17;;;1.37;;
16286;SDS011;8251;53.568;10.018;2023-12-28T08:37:04;7.77;;;1.63;;
16286;SDS011;8251;53.568;10.018;2023-12-28T08:39:33;5.83;;;1.50;;
16286;SDS011;8251;53.568;10.018;2023-12-28T08:42:00;6.97;;;1.70;;
16286;SDS011;8251;53.568;10.018;2023-12-28T08:44:28;4.90;;;1.77;;
16286;SDS011;8251;53.568;10.018;2023-12-28T08:46:55;3.70;;;1.37;;
16286;SDS011;8251;53.568;10.018;2023-12-28T08:49:21;6.50;;;1.50;;
16286;SDS011;8251;53.568;10.018;2023-12-28T08:51:49;2.97;;;1.60;;
16286;SDS011;8251;53.568;10.018;2023-12-28T08:54:15;5.70;;;1.77;;
16286;SDS011;8251;53.568;10.018;2023-12-28T08:56:44;5.77;;;1.70;;
16286;SDS011;8251;53.568;10.018;2023-12-28T08:59:10;6.23;;;1.47;;
16286;SDS011;8251;53.568;10.018;2023-12-28T09:01:38;10.03;;;2.53;;
16286;SDS011;8251;53.568;10.018;2023-12-28T09:04:05;9.43;;;1.60;;
16286;SDS011;8251;53.568;10.018;2023-12-28T09:06:34;5.27;;;1.30;;
16286;SDS011;8251;53.568;10.018;2023-12-28T09:09:01;1.77;;;1.30;;
16286;SDS011;8251;53.568;10.018;2023-12-28T09:11:28;5.27;;;1.43;;
16286;SDS011;8251;53.568;10.018;2023-12-28T09:13:57;7.10;;;1.37;;
16286;SDS011;8251;53.568;10.018;2023-12-28T09:16:24;5.43;;;1.33;;
16286;SDS011;8251;53.568;10.018;2023-12-28T09:18:53;4.07;;;1.83;;
16286;SDS011;8251;53.568;10.018;2023-12-28T09:21:20;4.93;;;1.57;;
16286;SDS011;8251;53.568;10.018;2023-12-28T09:23:47;2.03;;;1.17;;
16286;SDS011;8251;53.568;10.018;2023-12-28T09:26:14;2.63;;;1.23;;
16286;SDS011;8251;53.568;10.018;2023-12-28T09:28:41;4.97;;;1.30;;
16286;SDS011;8251;53.568;10.018;2023-12-28T09:31:11;5.17;;;1.73;;
16286;SDS011;8251;53.568;10.018;2023-12-28T09:33:38;3.63;;;1.30;;
16286;SDS011;8251;53.568;10.018;2023-12-28T09:36:05;4.47;;;1.83;;
16286;SDS011;8251;53.568;10.018;2023-12-28T09:38:33;2.80;;;1.43;;
16286;SDS011;8251;53.568;10.018;2023-12-28T09:41:03;6.70;;;1.30;;
16286;SDS011;8251;53.568;10.018;2023-12-28T09:43:37;4.83;;;1.20;;
16286;SDS011;8251;53.568;10.018;2023-12-28T09:46:08;3.17;;;1.40;;
16286;SDS011;8251;53.568;10.018;2023-12-28T09:48:40;6.77;;;1.53;;
16286;SDS011;8251;53.568;10.018;2023-12-28T09:51:07;6.70;;;1.43;;
16286;SDS011;8251;53.568;10.018;2023-12-28T09:53:37;4.97;;;1.63;;
16286;SDS011;8251;53.568;10.018;2023-12-28T09:56:04;9.57;;;2.50;;
16286;SDS011;8251;53.568;10.018;2023-12-28T09:58:33;4.00;;;1.30;;
16286;SDS011;8251;53.568;10.018;2023-12-28T10:01:03;7.20;;;1.50;;
16286;SDS011;8251;53.568;10.018;2023-12-28T10:03:31;5.10;;;2.03;;
16286;SDS011;8251;53.568;10.018;2023-12-28T10:05:59;5.63;;;1.50;;
16286;SDS011;8251;53.568;10.018;2023-12-28T10:08:30;5.83;;;1.27;;
16286;SDS011;8251;53.568;10.018;2023-12-28T10:10:57;10.77;;;2.20;;
16286;SDS011;8251;53.568;10.018;2023-12-28T10:13:39;6.80;;;1.33;;
16286;SDS011;8251;53.568;10.018;2023-12-28T10:16:10;7.27;;;1.80;;
16286;SDS011;8251;53.568;10.018;2023-12-28T10:18:40;8.17;;;2.00;;
16286;SDS011;8251;53.568;10.018;2023-12-28T10:21:09;9.53;;;1.80;;
16286;SDS011;8251;53.568;10.018;2023-12-28T10:23:35;4.40;;;1.60;;
16286;SDS011;8251;53.568;10.018;2023-12-28T10:26:04;3.77;;;1.60;;
16286;SDS011;8251;53.568;10.018;2023-12-28T10:28:49;6.00;;;1.57;;
16286;SDS011;8251;53.568;10.018;2023-12-28T10:31:32;8.30;;;1.80;;
16286;SDS011;8251;53.568;10.018;2023-12-28T10:33:59;4.37;;;1.43;;
16286;SDS011;8251;53.568;10.018;2023-12-28T10:36:29;8.70;;;1.50;;
16286;SDS011;8251;53.568;10.018;2023-12-28T10:39:28;13.80;;;2.07;;
16286;SDS011;8251;53.568;10.018;2023-12-28T10:41:50;9.03;;;1.90;;
16286;SDS011;8251;53.568;10.018;2023-12-28T10:44:21;7.33;;;1.90;;
16286;SDS011;8251;53.568;10.018;2023-12-28T10:46:55;8.23;;;1.70;;
16286;SDS011;8251;53.568;10.018;2023-12-28T10:49:28;6.93;;;2.57;;
16286;SDS011;8251;53.568;10.018;2023-12-28T10:52:07;8.77;;;1.87;;
16286;SDS011;8251;53.568;10.018;2023-12-28T10:54:40;9.20;;;1.80;;
16286;SDS011;8251;53.568;10.018;2023-12-28T10:57:37;11.07;;;2.10;;
16286;SDS011;8251;53.568;10.018;2023-12-28T11:00:33;7.30;;;1.70;;
16286;SDS011;8251;53.568;10.018;2023-12-28T11:03:04;7.40;;;1.33;;
16286;SDS011;8251;53.568;10.018;2023-12-28T11:05:35;8.33;;;1.53;;
16286;SDS011;8251;53.568;10.018;2023-12-28T11:08:05;6.87;;;1.30;;
16286;SDS011;8251;53.568;10.018;2023-12-28T11:10:33;4.67;;;1.60;;
16286;SDS011;8251;53.568;10.018;2023-12-28T11:13:07;12.20;;;2.00;;
16286;SDS011;8251;53.568;10.018;2023-12-28T11:15:43;10.97;;;2.33;;
16286;SDS011;8251;53.568;10.018;2023-12-28T11:18:12;9.03;;;1.73;;
16286;SDS011;8251;53.568;10.018;2023-12-28T11:20:41;7.53;;;1.60;;
16286;SDS011;8251;53.568;10.018;2023-12-28T11:23:10;6.20;;;1.80;;
16286;SDS011;8251;53.568;10.018;2023-12-28T11:25:38;4.83;;;1.80;;
16286;SDS011;8251;53.568;10.018;2023-12-28T11:28:08;10.37;;;1.60;;
16286;SDS011;8251;53.568;10.018;2023-12-28T11:30:36;9.93;;;1.90;;
16286;SDS011;8251;53.568;10.018;2023-12-28T11:33:04;7.17;;;2.00;;
16286;SDS011;8251;53.568;10.018;2023-12-28T11:35:34;9.07;;;1.50;;
16286;SDS011;8251;53.568;10.018;2023-12-28T11:38:03;9.17;;;2.00;;
16286;SDS011;8251;53.568;10.018;2023-12-28T11:40:41;11.47;;;2.70;;
16286;SDS011;8251;53.568;10.018;2023-12-28T11:43:15;7.27;;;1.57;;
16286;SDS011;8251;53.568;10.018;2023-12-28T11:45:47;7.03;;;3.40;;
16286;SDS011;8251;53.568;10.018;2023-12-28T11:48:24;8.47;;;1.70;;
16286;SDS011;8251;53.568;10.018;2023-12-28T11:50:54;9.87;;;1.90;;
16286;SDS011;8251;53.568;10.018;2023-12-28T11:53:23;8.97;;;2.20;;
16286;SDS011;8251;53.568;10.018;2023-12-28T11:55:51;15.33;;;2.43;;
16286;SDS011;8251;53.568;10.018;2023-12-28T11:58:25;11.60;;;1.70;;
16286;SDS011;8251;53.568;10.018;2023-12-28T12:00:52;6.83;;;2.07;;
16286;SDS011;8251;53.568;10.018;2023-12-28T12:03:19;7.77;;;2.00;;
16286;SDS011;8251;53.568;10.018;2023-12-28T12:05:46;9.60;;;1.60;;
16286;SDS011;8251;53.568;10.018;2023-12-28T12:08:13;10.50;;;2.07;;
16286;SDS011;8251;53.568;10.018;2023-12-28T12:10:40;8.53;;;1.70;;
16286;SDS011;8251;53.568;10.018;2023-12-28T12:13:08;12.70;;;2.13;;
16286;SDS011;8251;53.568;10.018;2023-12-28T12:15:35;7.67;;;1.77;;
16286;SDS011;8251;53.568;10.018;2023-12-28T12:18:03;11.60;;;2.13;;
16286;SDS011;8251;53.568;10.018;2023-12-28T12:20:31;16.40;;;2.83;;
16286;SDS011;8251;53.568;10.018;2023-12-28T12:22:58;8.20;;;1.70;;
16286;SDS011;8251;53.568;10.018;2023-12-28T12:25:25;12.27;;;1.57;;
16286;SDS011;8251;53.568;10.018;2023-12-28T12:27:53;14.10;;;2.47;;
16286;SDS011;8251;53.568;10.018;2023-12-28T12:30:21;10.00;;;1.90;;
16286;SDS011;8251;53.568;10.018;2023-12-28T12:32:48;11.23;;;3.00;;
16286;SDS011;8251;53.568;10.018;2023-12-28T12:35:15;10.33;;;2.40;;
16286;SDS011;8251;53.568;10.018;2023-12-28T12:37:44;12.20;;;2.23;;
16286;SDS011;8251;53.568;10.018;2023-12-28T12:40:12;8.33;;;1.87;;
16286;SDS011;8251;53.568;10.018;2023-12-28T12:42:40;15.03;;;2.33;;
16286;SDS011;8251;53.568;10.018;2023-12-28T12:45:07;14.87;;;3.00;;
16286;SDS011;8251;53.568;10.018;2023-12-28T12:47:36;12.97;;;1.93;;
16286;SDS011;8251;53.568;10.018;2023-12-28T12:50:03;10.90;;;1.80;;
16286;SDS011;8251;53.568;10.018;2023-12-28T12:52:30;12.73;;;2.90;;
16286;SDS011;8251;53.568;10.018;2023-12-28T12:54:57;14.87;;;2.10;;
16286;SDS011;8251;53.568;10.018;2023-12-28T12:57:24;9.80;;;1.67;;
16286;SDS011;8251;53.568;10.018;2023-12-28T12:59:52;10.63;;;1.77;;
16286;SDS011;8251;53.568;10.018;2023-12-28T13:02:21;9.23;;;2.10;;
16286;SDS011;8251;53.568;10.018;2023-12-28T13:04:52;9.37;;;1.83;;
16286;SDS011;8251;53.568;10.018;2023-12-28T13:07:19;10.23;;;2.37;;
16286;SDS011;8251;53.568;10.018;2023-12-28T13:09:46;9.07;;;1.70;;
16286;SDS011;8251;53.568;10.018;2023-12-28T13:12:13;6.97;;;2.33;;
16286;SDS011;8251;53.568;10.018;2023-12-28T13:14:40;12.60;;;2.67;;
16286;SDS011;8251;53.568;10.018;2023-12-28T13:17:09;12.40;;;2.07;;
16286;SDS011;8251;53.568;10.018;2023-12-28T13:19:36;6.63;;;1.63;;
16286;SDS011;8251;53.568;10.018;2023-12-28T13:22:04;15.30;;;2.33;;
16286;SDS011;8251;53.568;10.018;2023-12-28T13:24:31;10.50;;;2.13;;
16286;SDS011;8251;53.568;10.018;2023-12-28T13:27:01;8.87;;;1.90;;
16286;SDS011;8251;53.568;10.018;2023-12-28T13:29:28;12.27;;;2.47;;
16286;SDS011;8251;53.568;10.018;2023-12-28T13:31:55;7.97;;;1.83;;
16286;SDS011;8251;53.568;10.018;2023-12-28T13:34:23;8.33;;;1.40;;
16286;SDS011;8251;53.568;10.018;2023-12-28T13:36:50;10.93;;;2.03;;
16286;SDS011;8251;53.568;10.018;2023-12-28T13:39:19;6.30;;;1.73;;
16286;SDS011;8251;53.568;10.018;2023-12-28T13:41:46;12.10;;;1.97;;
16286;SDS011;8251;53.568;10.018;2023-12-28T13:44:13;8.23;;;1.57;;
16286;SDS011;8251;53.568;10.018;2023-12-28T13:46:40;11.37;;;1.57;;
16286;SDS011;8251;53.568;10.018;2023-12-28T13:49:07;6.77;;;1.60;;
16286;SDS011;8251;53.568;10.018;2023-12-28T13:51:34;11.80;;;2.10;;
16286;SDS011;8251;53.568;10.018;2023-12-28T13:54:01;13.87;;;2.73;;
16286;SDS011;8251;53.568;10.018;2023-12-28T13:56:29;10.90;;;1.63;;
16286;SDS011;8251;53.568;10.018;2023-12-28T13:58:56;10.97;;;1.70;;
16286;SDS011;8251;53.568;10.018;2023-12-28T14:01:23;11.80;;;2.20;;
16286;SDS011;8251;53.568;10.018;2023-12-28T14:03:50;7.73;;;2.30;;
16286;SDS011;8251;53.568;10.018;2023-12-28T14:06:17;10.63;;;1.50;;
16286;SDS011;8251;53.568;10.018;2023-12-28T14:08:45;7.83;;;1.83;;
16286;SDS011;8251;53.568;10.018;2023-12-28T14:11:12;15.17;;;2.10;;
16286;SDS011;8251;53.568;10.018;2023-12-28T14:13:40;9.17;;;2.03;;
16286;SDS011;8251;53.568;10.018;2023-12-28T14:16:07;5.17;;;1.53;;
16286;SDS011;8251;53.568;10.018;2023-12-28T14:18:34;5.50;;;2.53;;
16286;SDS011;8251;53.568;10.018;2023-12-28T14:21:01;10.10;;;1.83;;
16286;SDS011;8251;53.568;10.018;2023-12-28T14:23:29;9.63;;;1.70;;
16286;SDS011;8251;53.568;10.018;2023-12-28T14:25:57;10.40;;;2.37;;
16286;SDS011;8251;53.568;10.018;2023-12-28T14:28:24;9.60;;;1.73;;
16286;SDS011;8251;53.568;10.018;2023-12-28T14:30:55;13.83;;;2.23;;
16286;SDS011;8251;53.568;10.018;2023-12-28T14:33:22;10.53;;;1.97;;
16286;SDS011;8251;53.568;10.018;2023-12-28T14:35:50;7.20;;;2.13;;
16286;SDS011;8251;53.568;10.018;2023-12-28T14:38:17;11.67;;;3.23;;
16286;SDS011;8251;53.568;10.018;2023-12-28T14:40:44;14.73;;;2.67;;
16286;SDS011;8251;53.568;10.018;2023-12-28T14:43:11;8.10;;;2.50;;
16286;SDS011;8251;53.568;10.018;2023-12-28T14:45:38;15.97;;;2.00;;
16286;SDS011;8251;53.568;10.018;2023-12-28T14:48:08;8.03;;;1.87;;
16286;SDS011;8251;53.568;10.018;2023-12-28T14:50:34;7.70;;;1.83;;
16286;SDS011;8251;53.568;10.018;2023-12-28T14:53:01;11.20;;;2.77;;
16286;SDS011;8251;53.568;10.018;2023-12-28T14:55:28;12.37;;;2.37;;
16286;SDS011;8251;53.568;10.018;2023-12-28T14:57:55;12.03;;;1.73;;